Главная страница
METAR-TAF:

METAR-TAF

Аэропорты :

Лаппеэнранта, Финляндия

широта: 61-02-45N, долгота: 028-08-55E, высота над уровнем моря: 106 м

Текущие метеонаблюдения

Эта сводка был подготовлена 15 минут назад, в 19:20 UTC
Ветер 11 Узел от юго-западный, изменяющийся между южный и западный-юго-западный
Температура 2°C
Влажность 80%
Давление 997 hPa
Видимость 10 км и более
Рассеянная облачность на высоте 3200 фута

METAR: EFLP 261920Z AUTO 22011KT 190V250 9999 BKN032 02/M01 Q0997

Время: 22:35 (19:35 UTC)


TAF: отсутствует

Метеонаблюдения и прогнозы для более 4000 аэропортов (сводки METAR и TAF).

Имеющиеся станции представлены на карте желтыми и красными точками.

Чтобы увидеть название станции, наведите на нее мышь.

Затем щелкните, чтобы увидеть метеонаблюдения и метеопрогнозы.

Управление картой: чтобы увеличить масштаб, щелкните зеленые кнопки с черным крестиком; чтобы уменьшить масштаб, щелкните зеленую кнопку с тире; для просмотра соседних карт щелкайте зеленые стрелки.


METAR-TAF: